createdAt,value
2023-03-12T00:00:20.463Z,25.4
2023-03-12T00:01:22.353Z,25.4
2023-03-12T00:02:24.338Z,25.4
2023-03-12T00:03:26.475Z,25.4
2023-03-12T00:04:28.514Z,25.4
2023-03-12T00:05:30.417Z,25.4
2023-03-12T00:06:32.396Z,25.4
2023-03-12T00:07:34.321Z,25.4
2023-03-12T00:08:36.185Z,25.4
2023-03-12T00:09:38.141Z,25.4
2023-03-12T00:10:39.985Z,25.4
2023-03-12T00:11:41.896Z,25.4
2023-03-12T00:12:43.711Z,25.4
2023-03-12T00:13:45.524Z,25.4
2023-03-12T00:14:47.378Z,25.4
2023-03-12T00:15:49.239Z,25.4
2023-03-12T00:16:51.392Z,25.4
2023-03-12T00:17:53.238Z,25.4
2023-03-12T00:18:55.095Z,25.4
2023-03-12T00:19:57.066Z,25.4
2023-03-12T00:20:58.989Z,25.4
2023-03-12T00:22:01.628Z,25.4
2023-03-12T00:23:03.520Z,25.4
2023-03-12T00:24:05.358Z,25.4
2023-03-12T00:25:07.260Z,25.4
2023-03-12T00:26:09.060Z,25.4
2023-03-12T00:27:10.928Z,25.4
2023-03-12T00:28:12.767Z,25.4
2023-03-12T00:29:14.531Z,25.4
2023-03-12T00:30:16.468Z,25.4
2023-03-12T00:31:18.320Z,25.4
2023-03-12T00:32:20.404Z,25.4
2023-03-12T00:33:22.526Z,25.4
2023-03-12T00:34:24.407Z,25.4
2023-03-12T00:35:26.410Z,25.4
2023-03-12T00:36:28.496Z,25.4
2023-03-12T00:37:30.289Z,25.4
2023-03-12T00:38:32.254Z,25.4
2023-03-12T00:39:34.138Z,25.4
2023-03-12T00:40:35.979Z,25.4
2023-03-12T00:41:37.913Z,25.3
2023-03-12T00:42:39.788Z,25.3
2023-03-12T00:43:41.632Z,25.4
2023-03-12T00:44:43.491Z,25.3
2023-03-12T00:45:45.270Z,25.3
2023-03-12T00:46:47.282Z,25.3
2023-03-12T00:47:49.388Z,25.3
2023-03-12T00:48:51.293Z,25.3
2023-03-12T00:49:53.218Z,25.3
2023-03-12T00:50:55.125Z,25.3
2023-03-12T00:51:57.045Z,25.3
2023-03-12T00:52:58.974Z,25.3
2023-03-12T00:54:00.846Z,25.3
2023-03-12T00:55:02.708Z,25.4
2023-03-12T00:56:04.551Z,25.4
2023-03-12T00:57:06.441Z,25.4
2023-03-12T00:58:08.431Z,25.4
2023-03-12T00:59:10.318Z,25.3
2023-03-12T01:00:12.169Z,25.4
2023-03-12T01:01:14.115Z,25.4
2023-03-12T01:02:16.381Z,25.4
2023-03-12T01:03:18.275Z,25.4
2023-03-12T01:04:20.250Z,25.4
2023-03-12T01:05:22.505Z,25.3
2023-03-12T01:06:24.425Z,25.3
2023-03-12T01:07:26.297Z,25.3
2023-03-12T01:08:28.089Z,25.3
2023-03-12T01:09:29.834Z,25.3
2023-03-12T01:10:31.724Z,25.3
2023-03-12T01:11:33.603Z,25.3
2023-03-12T01:12:35.382Z,25.3
2023-03-12T01:13:37.379Z,25.3
2023-03-12T01:14:39.294Z,25.3
2023-03-12T01:15:41.147Z,25.3
2023-03-12T01:16:42.971Z,25.3
2023-03-12T01:17:45.147Z,25.3
2023-03-12T01:18:47.080Z,25.3
2023-03-12T01:19:48.847Z,25.3
2023-03-12T01:20:50.704Z,25.3
2023-03-12T01:21:52.575Z,25.3
2023-03-12T01:22:54.482Z,25.3
2023-03-12T01:23:56.506Z,25.3
2023-03-12T01:24:58.456Z,25.3
2023-03-12T01:26:00.403Z,25.3
2023-03-12T01:27:02.353Z,25.3
2023-03-12T01:28:04.321Z,25.3
2023-03-12T01:29:06.268Z,25.3
2023-03-12T01:30:08.150Z,25.3
2023-03-12T01:31:10.286Z,25.3
2023-03-12T01:32:12.488Z,25.3
2023-03-12T01:33:14.332Z,25.3
2023-03-12T01:34:16.096Z,25.2
2023-03-12T01:35:17.964Z,25.2
2023-03-12T01:36:20.330Z,25.2
2023-03-12T01:37:22.472Z,25.2
2023-03-12T01:38:24.379Z,25.3
2023-03-12T01:39:26.272Z,25.3
2023-03-12T01:40:28.110Z,25.3
2023-03-12T01:41:30.099Z,25.3
2023-03-12T01:42:31.937Z,25.3
2023-03-12T01:43:33.751Z,25.3
2023-03-12T01:44:35.572Z,25.3
2023-03-12T01:45:37.599Z,25.3
2023-03-12T01:46:39.709Z,25.3
2023-03-12T01:47:41.597Z,25.2
2023-03-12T01:48:43.482Z,25.2
2023-03-12T01:49:45.379Z,25.2
2023-03-12T01:50:47.313Z,25.2
2023-03-12T01:51:49.263Z,25.2
2023-03-12T01:52:51.129Z,25.2
2023-03-12T01:53:52.983Z,25.2
2023-03-12T01:54:54.775Z,25.2
2023-03-12T01:55:56.671Z,25.2
2023-03-12T01:56:58.569Z,25.2
2023-03-12T01:58:00.371Z,25.2
2023-03-12T01:59:02.220Z,25.2
2023-03-12T02:00:04.206Z,25.2
2023-03-12T02:01:06.259Z,25.2
2023-03-12T02:02:08.732Z,25.2
2023-03-12T02:03:10.701Z,25.2
2023-03-12T02:04:12.773Z,25.2
2023-03-12T02:05:14.871Z,25.2
2023-03-12T02:06:16.559Z,25.2
2023-03-12T02:07:18.554Z,25.2
2023-03-12T02:08:20.431Z,25.2
2023-03-12T02:09:22.349Z,25.2
2023-03-12T02:10:24.209Z,25.2
2023-03-12T02:11:26.056Z,25.2
2023-03-12T02:12:27.951Z,25.1
2023-03-12T02:13:29.801Z,25.1
2023-03-12T02:14:31.619Z,25.1
2023-03-12T02:15:33.532Z,25.1
2023-03-12T02:16:35.539Z,25.1
2023-03-12T02:17:37.768Z,25.1
2023-03-12T02:18:39.615Z,25.1
2023-03-12T02:19:41.474Z,25.1
2023-03-12T02:20:43.400Z,25.1
2023-03-12T02:21:45.282Z,25.1
2023-03-12T02:22:47.129Z,25.1
2023-03-12T02:23:48.994Z,25.1
2023-03-12T02:24:50.760Z,25.1
2023-03-12T02:25:52.697Z,25.1
2023-03-12T02:26:54.629Z,25.1
2023-03-12T02:27:56.983Z,25.1
2023-03-12T02:28:59.180Z,25.1
2023-03-12T02:30:01.000Z,25.1
2023-03-12T02:31:02.920Z,25.1
2023-03-12T02:32:04.793Z,25.1
2023-03-12T02:33:07.026Z,25.1
2023-03-12T02:34:08.916Z,25.1
2023-03-12T02:35:10.770Z,25.1
2023-03-12T02:36:12.672Z,25.1
2023-03-12T02:37:14.637Z,25.1
2023-03-12T02:38:16.447Z,25.1
2023-03-12T02:39:18.398Z,25.1
2023-03-12T02:40:20.286Z,25.1
2023-03-12T02:41:22.106Z,25.1
2023-03-12T02:42:24.026Z,25.1
2023-03-12T02:43:25.863Z,25.1
2023-03-12T02:44:27.612Z,25.1
2023-03-12T02:45:29.507Z,25.1
2023-03-12T02:46:31.531Z,25.1
2023-03-12T02:47:33.440Z,25.1
2023-03-12T02:48:35.217Z,25.1
2023-03-12T02:49:37.064Z,25.1
2023-03-12T02:50:38.936Z,25.1
2023-03-12T02:51:40.717Z,25.1
2023-03-12T02:52:42.705Z,25.1
2023-03-12T02:53:44.565Z,25.1
2023-03-12T02:54:46.452Z,25.1
2023-03-12T02:55:48.375Z,25.1
2023-03-12T02:56:50.298Z,25.1
2023-03-12T02:57:52.260Z,25.1
2023-03-12T02:58:54.000Z,25.1
2023-03-12T02:59:55.893Z,25.1
2023-03-12T03:00:57.763Z,25.1
2023-03-12T03:01:59.962Z,25.1
2023-03-12T03:03:02.013Z,25.1
2023-03-12T03:04:03.973Z,25.1
2023-03-12T03:05:06.047Z,25.1
2023-03-12T03:06:07.896Z,25.1
2023-03-12T03:07:09.748Z,25.1
2023-03-12T03:08:11.666Z,25.1
2023-03-12T03:09:13.610Z,25.1
2023-03-12T03:10:15.493Z,25.1
2023-03-12T03:11:17.533Z,25.1
2023-03-12T03:12:19.417Z,25.1
2023-03-12T03:13:21.093Z,25.1
2023-03-12T03:14:23.008Z,25.1
2023-03-12T03:15:25.043Z,25.1
2023-03-12T03:16:27.113Z,25
2023-03-12T03:17:29.018Z,25
2023-03-12T03:18:30.927Z,25
2023-03-12T03:19:32.732Z,25
2023-03-12T03:20:34.686Z,25
2023-03-12T03:21:36.574Z,25
2023-03-12T03:22:38.458Z,25
2023-03-12T03:23:40.401Z,25
2023-03-12T03:24:42.226Z,25
2023-03-12T03:25:44.094Z,25
2023-03-12T03:26:45.977Z,25
2023-03-12T03:27:47.892Z,25
2023-03-12T03:28:49.735Z,25
2023-03-12T03:29:51.545Z,25
2023-03-12T03:30:53.523Z,25
2023-03-12T03:31:55.519Z,25
2023-03-12T03:32:57.434Z,25
2023-03-12T03:33:59.348Z,25
2023-03-12T03:35:01.239Z,25
2023-03-12T03:36:03.118Z,25
2023-03-12T03:37:05.447Z,25
2023-03-12T03:38:07.309Z,25
2023-03-12T03:39:09.141Z,25
2023-03-12T03:40:11.055Z,25
2023-03-12T03:41:12.990Z,25
2023-03-12T03:42:14.939Z,25
2023-03-12T03:43:16.851Z,25
2023-03-12T03:44:18.788Z,25
2023-03-12T03:45:20.675Z,25
2023-03-12T03:46:22.564Z,25
2023-03-12T03:47:24.840Z,24.9
2023-03-12T03:48:26.726Z,25
2023-03-12T03:49:28.676Z,25
2023-03-12T03:50:30.363Z,25
2023-03-12T03:51:32.275Z,24.9
2023-03-12T03:52:34.195Z,24.9
2023-03-12T03:53:36.316Z,24.9
2023-03-12T03:54:38.273Z,24.9
2023-03-12T03:55:40.190Z,24.9
2023-03-12T03:56:42.099Z,25
2023-03-12T03:57:43.994Z,25
2023-03-12T03:58:45.988Z,25
2023-03-12T03:59:47.795Z,24.9
2023-03-12T04:00:49.639Z,24.9
2023-03-12T04:01:51.492Z,24.9
2023-03-12T04:02:53.336Z,24.9
2023-03-12T04:03:55.336Z,24.9
2023-03-12T04:04:57.246Z,24.9
2023-03-12T04:05:59.092Z,24.9
2023-03-12T04:07:01.321Z,24.9
2023-03-12T04:08:03.219Z,24.9
2023-03-12T04:09:05.152Z,24.9
2023-03-12T04:10:06.897Z,24.9
2023-03-12T04:11:08.749Z,24.9
2023-03-12T04:12:10.692Z,24.9
2023-03-12T04:13:12.615Z,24.9
2023-03-12T04:14:14.466Z,24.9
2023-03-12T04:15:16.356Z,24.9
2023-03-12T04:16:18.250Z,24.9
2023-03-12T04:17:20.356Z,24.9
2023-03-12T04:18:22.308Z,24.9
2023-03-12T04:19:24.367Z,24.9
2023-03-12T04:20:26.186Z,24.9
2023-03-12T04:21:28.082Z,24.9
2023-03-12T04:22:30.000Z,24.9
2023-03-12T04:23:31.881Z,24.9
2023-03-12T04:24:33.665Z,24.9
2023-03-12T04:25:35.483Z,24.9
2023-03-12T04:26:37.337Z,24.9
2023-03-12T04:27:39.370Z,24.9
2023-03-12T04:28:41.337Z,24.9
2023-03-12T04:29:43.267Z,24.9
2023-03-12T04:30:45.138Z,24.9
2023-03-12T04:31:47.059Z,24.9
2023-03-12T04:32:49.370Z,24.9
2023-03-12T04:33:51.613Z,24.9
2023-03-12T04:34:53.330Z,24.9
2023-03-12T04:35:55.285Z,24.9
2023-03-12T04:36:57.346Z,24.9
2023-03-12T04:37:59.190Z,24.9
2023-03-12T04:39:01.133Z,24.9
2023-03-12T04:40:03.018Z,24.9
2023-03-12T04:41:04.804Z,24.9
2023-03-12T04:42:06.704Z,24.9
2023-03-12T04:43:08.579Z,24.9
2023-03-12T04:44:12.713Z,24.9
2023-03-12T04:45:14.741Z,24.9
2023-03-12T04:46:16.595Z,24.9
2023-03-12T04:47:18.835Z,24.9
2023-03-12T04:48:20.775Z,24.9
2023-03-12T04:49:22.529Z,24.9
2023-03-12T04:50:24.400Z,24.9
2023-03-12T04:51:26.236Z,24.9
2023-03-12T04:52:28.075Z,24.9
2023-03-12T04:53:30.026Z,24.9
2023-03-12T04:54:32.184Z,24.9
2023-03-12T04:55:34.089Z,24.9
2023-03-12T04:56:35.990Z,24.9
2023-03-12T04:57:37.792Z,24.9
2023-03-12T04:58:39.711Z,24.9
2023-03-12T04:59:41.554Z,24.9
2023-03-12T05:00:43.475Z,24.9
2023-03-12T05:01:45.346Z,25
2023-03-12T05:02:47.179Z,24.9
2023-03-12T05:03:49.373Z,24.9
2023-03-12T05:04:51.505Z,25
2023-03-12T05:05:53.267Z,24.9
2023-03-12T05:06:55.197Z,24.9
2023-03-12T05:07:57.067Z,24.9
2023-03-12T05:08:58.924Z,25
2023-03-12T05:10:00.866Z,25
2023-03-12T05:11:02.721Z,25
2023-03-12T05:12:04.565Z,25
2023-03-12T05:13:06.457Z,24.9
2023-03-12T05:14:08.300Z,24.9
2023-03-12T05:15:10.181Z,24.9
2023-03-12T05:16:12.118Z,24.9
2023-03-12T05:17:14.191Z,24.9
2023-03-12T05:18:16.072Z,24.9
2023-03-12T05:19:17.929Z,24.9
2023-03-12T05:20:19.829Z,24.9
2023-03-12T05:21:21.596Z,24.9
2023-03-12T05:22:23.409Z,24.9
2023-03-12T05:23:25.390Z,24.8
2023-03-12T05:24:27.281Z,24.9
2023-03-12T05:25:29.123Z,24.9
2023-03-12T05:26:30.916Z,24.9
2023-03-12T05:27:33.001Z,24.9
2023-03-12T05:28:34.955Z,24.9
2023-03-12T05:29:36.867Z,24.9
2023-03-12T05:30:38.789Z,24.9
2023-03-12T05:31:40.715Z,25
2023-03-12T05:32:42.784Z,25
2023-03-12T05:33:44.917Z,25
2023-03-12T05:34:46.747Z,25
2023-03-12T05:35:48.704Z,25
2023-03-12T05:36:50.720Z,25.1
2023-03-12T05:37:52.586Z,25.1
2023-03-12T05:38:54.405Z,25.1
2023-03-12T05:39:56.149Z,25.1
2023-03-12T05:40:58.064Z,25.1
2023-03-12T05:42:00.062Z,25.2
2023-03-12T05:43:01.916Z,25.2
2023-03-12T05:44:03.828Z,25.3
2023-03-12T05:45:05.733Z,25.4
2023-03-12T05:46:07.602Z,25.4
2023-03-12T05:47:09.831Z,25.5
2023-03-12T05:48:11.680Z,25.5
2023-03-12T05:49:13.674Z,25.5
2023-03-12T05:50:15.582Z,25.6
2023-03-12T05:51:17.321Z,25.6
2023-03-12T05:52:19.195Z,25.6
2023-03-12T05:53:21.024Z,25.7
2023-03-12T05:54:22.913Z,25.7
2023-03-12T05:55:24.764Z,25.7
2023-03-12T05:56:26.682Z,25.7
2023-03-12T05:57:28.527Z,25.7
2023-03-12T05:58:30.262Z,25.7
2023-03-12T05:59:32.188Z,25.8
2023-03-12T06:00:34.100Z,25.8
2023-03-12T06:01:36.019Z,25.8
2023-03-12T06:02:37.991Z,25.8
2023-03-12T06:03:40.319Z,25.8
2023-03-12T06:04:42.872Z,25.9
2023-03-12T06:05:44.818Z,25.9
2023-03-12T06:06:46.702Z,25.9
2023-03-12T06:07:48.528Z,25.9
2023-03-12T06:08:50.398Z,25.9
2023-03-12T06:09:52.260Z,25.9
2023-03-12T06:10:54.213Z,25.9
2023-03-12T06:11:56.103Z,25.9
2023-03-12T06:12:58.050Z,25.9
2023-03-12T06:13:59.997Z,26
2023-03-12T06:15:01.926Z,26
2023-03-12T06:16:03.892Z,26
2023-03-12T06:17:05.720Z,26
2023-03-12T06:18:07.620Z,26
2023-03-12T06:19:09.436Z,26.1
2023-03-12T06:20:11.274Z,26.1
2023-03-12T06:21:13.059Z,26.1
2023-03-12T06:22:14.975Z,26.1
2023-03-12T06:23:16.802Z,26.2
2023-03-12T06:24:22.362Z,26.2
2023-03-12T06:25:24.202Z,26.2
2023-03-12T06:26:26.198Z,26.3
2023-03-12T06:27:28.114Z,26.3
2023-03-12T06:28:29.964Z,26.3
2023-03-12T06:29:31.819Z,26.3
2023-03-12T06:30:33.759Z,26.3
2023-03-12T06:31:38.512Z,26.3
2023-03-12T06:32:41.109Z,26.4
2023-03-12T06:33:43.309Z,26.4
2023-03-12T06:34:45.218Z,26.4
2023-03-12T06:35:47.147Z,26.4
2023-03-12T06:36:49.229Z,26.4
2023-03-12T06:37:51.112Z,26.4
2023-03-12T06:38:54.564Z,26.4
2023-03-12T06:39:58.923Z,26.4
2023-03-12T06:41:00.713Z,26.4
2023-03-12T06:42:02.677Z,26.4
2023-03-12T06:43:04.577Z,26.4
2023-03-12T06:44:06.414Z,26.4
2023-03-12T06:45:08.584Z,26.4
2023-03-12T06:46:10.438Z,26.4
2023-03-12T06:47:12.605Z,26.5
2023-03-12T06:48:15.730Z,26.5
2023-03-12T06:49:17.521Z,26.5
2023-03-12T06:50:19.336Z,26.5
2023-03-12T06:51:21.215Z,26.5
2023-03-12T06:52:23.048Z,26.5
2023-03-12T06:53:24.894Z,26.5
2023-03-12T06:54:26.814Z,26.5
2023-03-12T06:55:28.705Z,26.5
2023-03-12T06:56:30.605Z,26.5
2023-03-12T06:57:32.511Z,26.5
2023-03-12T06:58:34.358Z,26.5
2023-03-12T06:59:36.253Z,26.5
2023-03-12T07:00:38.054Z,26.6
2023-03-12T07:01:39.847Z,26.6
2023-03-12T07:02:41.686Z,26.6
2023-03-12T07:03:43.475Z,26.6
2023-03-12T07:04:45.396Z,26.6
2023-03-12T07:05:47.451Z,26.6
2023-03-12T07:06:49.289Z,26.6
2023-03-12T07:07:51.204Z,26.6
2023-03-12T07:08:53.068Z,26.6
2023-03-12T07:09:54.941Z,26.6
2023-03-12T07:10:57.205Z,26.6
2023-03-12T07:12:03.644Z,26.7
2023-03-12T07:13:05.633Z,26.7
2023-03-12T07:14:07.556Z,26.7
2023-03-12T07:15:09.408Z,26.7
2023-03-12T07:16:11.449Z,26.7
2023-03-12T07:17:13.606Z,26.7
2023-03-12T07:18:15.479Z,26.7
2023-03-12T07:19:17.329Z,26.7
2023-03-12T07:20:19.327Z,26.7
2023-03-12T07:21:21.210Z,26.7
2023-03-12T07:22:23.062Z,26.7
2023-03-12T07:23:24.916Z,26.7
2023-03-12T07:24:26.809Z,26.7
2023-03-12T07:25:28.671Z,26.7
2023-03-12T07:26:30.679Z,26.7
2023-03-12T07:27:32.526Z,26.7
2023-03-12T07:28:34.378Z,26.7
2023-03-12T07:29:36.261Z,26.7
2023-03-12T07:30:38.090Z,26.7
2023-03-12T07:31:39.972Z,26.7
2023-03-12T07:32:42.102Z,26.7
2023-03-12T07:33:44.215Z,26.7
2023-03-12T07:34:46.647Z,26.7
2023-03-12T07:35:50.931Z,26.7
2023-03-12T07:36:54.293Z,26.7
2023-03-12T07:37:56.674Z,26.7
2023-03-12T07:38:58.701Z,26.7
2023-03-12T07:40:00.586Z,26.7
2023-03-12T07:41:03.192Z,26.7
2023-03-12T07:42:05.510Z,26.7
2023-03-12T07:43:07.667Z,26.7
2023-03-12T07:44:09.719Z,26.7
2023-03-12T07:45:11.895Z,26.7
2023-03-12T07:46:14.052Z,26.7
2023-03-12T07:47:23.423Z,26.7
2023-03-12T07:48:27.007Z,26.7
2023-03-12T07:49:29.123Z,26.7
2023-03-12T07:50:31.213Z,26.7
2023-03-12T07:51:33.264Z,26.7
2023-03-12T07:52:35.140Z,26.7
2023-03-12T07:53:37.101Z,26.7
2023-03-12T07:54:39.041Z,26.7
2023-03-12T07:55:41.225Z,26.7
2023-03-12T07:56:43.749Z,26.7
2023-03-12T07:57:46.239Z,26.7
2023-03-12T07:58:48.946Z,26.7
2023-03-12T07:59:51.283Z,26.7
2023-03-12T08:00:54.058Z,26.7
2023-03-12T08:01:56.225Z,26.7
2023-03-12T08:02:58.745Z,26.6
2023-03-12T08:04:01.531Z,26.6
2023-03-12T08:05:04.127Z,26.7
2023-03-12T08:06:06.482Z,26.6
2023-03-12T08:07:09.357Z,26.6
2023-03-12T08:08:11.655Z,26.6
2023-03-12T08:09:13.775Z,26.6
2023-03-12T08:10:18.544Z,26.7
2023-03-12T08:11:20.725Z,26.7
2023-03-12T08:12:22.537Z,26.6
2023-03-12T08:13:24.889Z,26.6
2023-03-12T08:14:27.270Z,26.6
2023-03-12T08:15:29.297Z,26.6
2023-03-12T08:16:31.218Z,26.6
2023-03-12T08:17:33.282Z,26.6
2023-03-12T08:18:35.149Z,26.6
2023-03-12T08:19:37.071Z,26.6
2023-03-12T08:20:39.048Z,26.6
2023-03-12T08:21:40.990Z,26.6
2023-03-12T08:22:42.829Z,26.6
2023-03-12T08:23:45.284Z,26.6
2023-03-12T08:24:47.859Z,26.6
2023-03-12T08:25:50.312Z,26.6
2023-03-12T08:26:52.210Z,26.6
2023-03-12T08:27:54.237Z,26.6
2023-03-12T08:28:56.019Z,26.6
2023-03-12T08:29:57.714Z,26.6
2023-03-12T08:30:59.639Z,26.5
2023-03-12T08:32:05.132Z,26.5
2023-03-12T08:33:07.689Z,26.5
2023-03-12T08:34:09.932Z,26.5
2023-03-12T08:35:11.782Z,26.5
2023-03-12T08:36:13.693Z,26.5
2023-03-12T08:37:15.584Z,26.5
2023-03-12T08:38:17.517Z,26.5
2023-03-12T08:39:19.386Z,26.5
2023-03-12T08:40:21.192Z,26.5
2023-03-12T08:41:23.088Z,26.5
2023-03-12T08:42:24.869Z,26.5
2023-03-12T08:43:29.092Z,26.5
2023-03-12T08:44:31.409Z,26.5
2023-03-12T08:45:33.285Z,26.5
2023-03-12T08:46:35.278Z,26.5
2023-03-12T08:47:37.188Z,26.4
2023-03-12T08:48:39.048Z,26.4
2023-03-12T08:49:40.996Z,26.5
2023-03-12T08:50:42.826Z,26.4
2023-03-12T08:51:44.605Z,26.5
2023-03-12T08:52:46.518Z,26.4
2023-03-12T08:53:48.432Z,26.5
2023-03-12T08:54:50.308Z,26.5
2023-03-12T08:55:52.064Z,26.4
2023-03-12T08:56:53.910Z,26.4
2023-03-12T08:57:55.887Z,26.4
2023-03-12T08:58:57.896Z,26.4
2023-03-12T08:59:59.768Z,26.4
2023-03-12T09:01:01.628Z,26.4
2023-03-12T09:02:03.406Z,26.4
2023-03-12T09:03:05.468Z,26.4
2023-03-12T09:04:07.613Z,26.4
2023-03-12T09:05:09.538Z,26.4
2023-03-12T09:06:11.402Z,26.4
2023-03-12T09:07:13.262Z,26.4
2023-03-12T09:08:15.690Z,26.4
2023-03-12T09:09:17.515Z,26.4
2023-03-12T09:10:19.411Z,26.4
2023-03-12T09:11:21.215Z,26.4
2023-03-12T09:12:23.096Z,26.4
2023-03-12T09:13:26.168Z,26.3
2023-03-12T09:16:03.736Z,26.4
2023-03-12T09:17:05.521Z,26.5
2023-03-12T09:18:07.363Z,26.4
2023-03-12T09:19:09.015Z,26.5
2023-03-12T09:20:10.907Z,26.5
2023-03-12T09:21:15.610Z,26.5
2023-03-12T09:22:17.726Z,26.4
2023-03-12T09:23:19.620Z,26.4
2023-03-12T09:24:21.552Z,26.4
2023-03-12T09:25:23.511Z,26.4
2023-03-12T09:26:25.513Z,26.4
2023-03-12T09:27:27.533Z,26.3
2023-03-12T09:28:29.386Z,26.3
2023-03-12T09:29:31.334Z,26.3
2023-03-12T09:30:33.418Z,26.3
2023-03-12T09:31:35.574Z,26.3
2023-03-12T09:32:37.491Z,26.3
2023-03-12T09:33:39.524Z,26.3
2023-03-12T09:34:41.304Z,26.3
2023-03-12T09:35:43.150Z,26.3
2023-03-12T09:36:45.234Z,26.3
2023-03-12T09:37:47.140Z,26.3
2023-03-12T09:38:48.976Z,26.3
2023-03-12T09:39:50.728Z,26.3
2023-03-12T09:40:52.681Z,26.3
2023-03-12T09:41:54.601Z,26.3
2023-03-12T09:42:56.509Z,26.3
2023-03-12T09:43:58.557Z,26.3
2023-03-12T09:45:00.465Z,26.3
2023-03-12T09:46:02.355Z,26.3
2023-03-12T09:47:04.522Z,26.3
2023-03-12T09:48:06.605Z,26.2
2023-03-12T09:49:08.486Z,26.2
2023-03-12T09:50:10.268Z,26.2
2023-03-12T09:51:12.210Z,26.3
2023-03-12T09:52:14.154Z,26.3
2023-03-12T09:53:16.059Z,26.2
2023-03-12T09:54:17.939Z,26.2
2023-03-12T09:55:19.750Z,26.3
2023-03-12T09:56:21.667Z,26.3
2023-03-12T09:57:23.465Z,26.3
2023-03-12T09:58:25.360Z,26.2
2023-03-12T09:59:27.110Z,26.3
2023-03-12T10:00:29.265Z,26.3
2023-03-12T10:01:31.112Z,26.3
2023-03-12T10:02:32.982Z,26.3
2023-03-12T10:03:34.906Z,26.2
2023-03-12T10:04:48.869Z,26.2
2023-03-12T10:06:02.220Z,26.3
2023-03-12T10:07:04.423Z,26.3
2023-03-12T10:08:22.984Z,26.3
2023-03-12T10:09:33.930Z,26.3
2023-03-12T10:10:35.883Z,26.3
2023-03-12T10:11:37.706Z,26.3
2023-03-12T10:12:39.602Z,26.3
2023-03-12T10:13:41.436Z,26.3
2023-03-12T10:14:43.319Z,26.3
2023-03-12T10:15:45.294Z,26.3
2023-03-12T10:16:47.293Z,26.3
2023-03-12T10:17:49.246Z,26.2
2023-03-12T10:18:51.730Z,26.2
2023-03-12T10:19:54.378Z,26.2
2023-03-12T10:20:56.224Z,26.2
2023-03-12T10:21:57.973Z,26.2
2023-03-12T10:22:59.761Z,26.2
2023-03-12T10:24:01.665Z,26.2
2023-03-12T10:25:04.122Z,26.2
2023-03-12T10:26:06.064Z,26.2
2023-03-12T10:27:07.932Z,26.2
2023-03-12T10:28:09.693Z,26.2
2023-03-12T10:29:11.441Z,26.2
2023-03-12T10:30:13.296Z,26.2
2023-03-12T10:31:15.247Z,26.2
2023-03-12T10:32:17.331Z,26.2
2023-03-12T10:33:19.395Z,26.2
2023-03-12T10:34:21.179Z,26.2
2023-03-12T10:35:23.051Z,26.2
2023-03-12T10:36:24.936Z,26.2
2023-03-12T10:37:26.852Z,26.2
2023-03-12T10:38:28.766Z,26.1
2023-03-12T10:39:30.470Z,26.2
2023-03-12T10:40:32.316Z,26.2
2023-03-12T10:41:34.969Z,26.2
2023-03-12T10:42:37.053Z,26.2
2023-03-12T10:43:38.885Z,26.2
2023-03-12T10:44:40.728Z,26.2
2023-03-12T10:45:42.665Z,26.2
2023-03-12T10:46:44.574Z,26.2
2023-03-12T10:47:46.614Z,26.1
2023-03-12T10:48:48.534Z,26.1
2023-03-12T10:49:50.385Z,26.1
2023-03-12T10:50:52.228Z,26.1
2023-03-12T10:51:54.070Z,26.1
2023-03-12T10:52:56.006Z,26.1
2023-03-12T10:53:57.824Z,26.1
2023-03-12T10:54:59.728Z,26.1
2023-03-12T10:56:02.504Z,26.1
2023-03-12T10:57:04.350Z,26.1
2023-03-12T10:58:06.228Z,26.1
2023-03-12T10:59:08.052Z,26.1
2023-03-12T11:00:09.929Z,26.1
2023-03-12T11:01:11.932Z,26.1
2023-03-12T11:02:13.801Z,26.1
2023-03-12T11:03:15.559Z,26.1
2023-03-12T11:04:17.346Z,26.1
2023-03-12T11:05:19.263Z,26.1
2023-03-12T11:06:21.326Z,26.2
2023-03-12T11:07:23.244Z,26.1
2023-03-12T11:08:25.111Z,26.1
2023-03-12T11:09:26.957Z,26.2
2023-03-12T11:10:28.808Z,26.2
2023-03-12T11:11:30.776Z,26.2
2023-03-12T11:12:32.677Z,26.2
2023-03-12T11:13:34.571Z,26.2
2023-03-12T11:14:36.414Z,26.2
2023-03-12T11:15:38.415Z,26.2
2023-03-12T11:16:40.703Z,26.2
2023-03-12T11:17:42.486Z,26.2
2023-03-12T11:18:44.323Z,26.2
2023-03-12T11:19:46.287Z,26.2
2023-03-12T11:20:48.095Z,26.2
2023-03-12T11:21:49.879Z,26.2
2023-03-12T11:22:51.726Z,26.2
2023-03-12T11:23:53.583Z,26.2
2023-03-12T11:24:55.462Z,26.2
2023-03-12T11:25:57.394Z,26.2
2023-03-12T11:26:59.327Z,26.3
2023-03-12T11:28:01.332Z,26.2
2023-03-12T11:29:03.404Z,26.2
2023-03-12T11:30:05.595Z,26.3
2023-03-12T11:31:07.779Z,26.2
2023-03-12T11:32:10.105Z,26.2
2023-03-12T11:33:11.889Z,26.2
2023-03-12T11:34:13.732Z,26.2
2023-03-12T11:35:15.627Z,26.3
2023-03-12T11:36:17.623Z,26.3
2023-03-12T11:37:19.471Z,26.3
2023-03-12T11:38:21.328Z,26.2
2023-03-12T11:39:23.139Z,26.3
2023-03-12T11:40:25.095Z,26.2
2023-03-12T11:41:26.907Z,26.3
2023-03-12T11:42:29.075Z,26.2
2023-03-12T11:43:42.467Z,26.3
2023-03-12T11:44:46.149Z,26.3
2023-03-12T11:45:47.993Z,26.3
2023-03-12T11:46:49.847Z,26.3
2023-03-12T11:47:52.091Z,26.3
2023-03-12T11:48:54.310Z,26.3
2023-03-12T11:49:56.213Z,26.3
2023-03-12T11:50:58.152Z,26.3
2023-03-12T11:51:59.914Z,26.3
2023-03-12T11:53:01.800Z,26.3
2023-03-12T11:54:03.723Z,26.3
2023-03-12T11:55:05.505Z,26.3
2023-03-12T11:56:07.425Z,26.3
2023-03-12T11:57:09.309Z,26.3
2023-03-12T11:58:11.251Z,26.3
2023-03-12T11:59:13.166Z,26.2
2023-03-12T12:00:15.085Z,26.3
2023-03-12T12:01:16.973Z,26.3
2023-03-12T12:02:18.784Z,26.3
2023-03-12T12:03:20.970Z,26.3
2023-03-12T12:04:23.141Z,26.3
2023-03-12T12:05:25.055Z,26.3
2023-03-12T12:06:27.025Z,26.3
2023-03-12T12:07:28.894Z,26.2
2023-03-12T12:08:30.814Z,26.2
2023-03-12T12:09:32.701Z,26.3
2023-03-12T12:10:34.544Z,26.3
2023-03-12T12:11:36.394Z,26.3
2023-03-12T12:12:38.333Z,26.2
2023-03-12T12:13:40.290Z,26.3
2023-03-12T12:14:42.230Z,26.3
2023-03-12T12:15:44.045Z,26.3
2023-03-12T12:16:45.958Z,26.3
2023-03-12T12:17:48.148Z,26.3
2023-03-12T12:18:50.182Z,26.3
2023-03-12T12:19:52.013Z,26.3
2023-03-12T12:20:53.872Z,26.3
2023-03-12T12:21:55.830Z,26.3
2023-03-12T12:22:58.569Z,26.3
2023-03-12T12:24:00.640Z,26.3
2023-03-12T12:25:02.819Z,26.3
2023-03-12T12:26:05.172Z,26.3
2023-03-12T12:27:07.536Z,26.3
2023-03-12T12:28:09.546Z,26.3
2023-03-12T12:29:11.466Z,26.3
2023-03-12T12:30:13.396Z,26.3
2023-03-12T12:31:15.241Z,26.3
2023-03-12T12:32:17.130Z,26.3
2023-03-12T12:33:19.286Z,26.3
2023-03-12T12:34:21.286Z,26.3
2023-03-12T12:35:23.075Z,26.3
2023-03-12T12:36:24.888Z,26.3
2023-03-12T12:37:26.644Z,26.3
2023-03-12T12:38:28.469Z,26.3
2023-03-12T12:39:30.314Z,26.3
2023-03-12T12:40:32.213Z,26.3
2023-03-12T12:41:34.045Z,26.3
2023-03-12T12:42:35.901Z,26.3
2023-03-12T12:43:37.739Z,26.3
2023-03-12T12:44:39.807Z,26.3
2023-03-12T12:45:41.608Z,26.2
2023-03-12T12:46:43.699Z,26.2
2023-03-12T12:47:45.544Z,26.2
2023-03-12T12:48:47.456Z,26.2
2023-03-12T12:49:49.429Z,26.2
2023-03-12T12:50:51.701Z,26.3
2023-03-12T12:51:53.575Z,26.2
2023-03-12T12:52:55.420Z,26.2
2023-03-12T12:53:57.276Z,26.2
2023-03-12T12:54:59.189Z,26.2
2023-03-12T12:56:01.100Z,26.2
2023-03-12T12:57:03.023Z,26.2
2023-03-12T12:58:04.877Z,26.2
2023-03-12T12:59:06.624Z,26.2
2023-03-12T13:00:08.583Z,26.2
2023-03-12T13:01:10.435Z,26.2
2023-03-12T13:02:12.680Z,26.2
2023-03-12T13:03:14.537Z,26.2
2023-03-12T13:04:16.452Z,26.3
2023-03-12T13:05:18.733Z,26.3
2023-03-12T13:06:20.535Z,26.3
2023-03-12T13:07:22.352Z,26.3
2023-03-12T13:08:24.202Z,26.3
2023-03-12T13:09:26.150Z,26.3
2023-03-12T13:10:28.070Z,26.2
2023-03-12T13:11:29.945Z,26.2
2023-03-12T13:12:31.798Z,26.2
2023-03-12T13:13:33.656Z,26.2
2023-03-12T13:14:38.374Z,26.2
2023-03-12T13:15:40.484Z,26.2
2023-03-12T13:16:42.632Z,26.2
2023-03-12T13:17:44.563Z,26.1
2023-03-12T13:18:46.381Z,26.1
2023-03-12T13:19:55.378Z,26.1
2023-03-12T13:21:04.125Z,26.2
2023-03-12T13:22:05.964Z,26.1
2023-03-12T13:23:07.756Z,26.1
2023-03-12T13:24:09.600Z,26.1
2023-03-12T13:25:11.415Z,26
2023-03-12T13:26:13.345Z,26
2023-03-12T13:27:15.152Z,26.1
2023-03-12T13:28:17.039Z,26.1
2023-03-12T13:29:18.922Z,26.1
2023-03-12T13:30:20.767Z,26.1
2023-03-12T13:31:22.813Z,26
2023-03-12T13:32:24.827Z,26
2023-03-12T13:33:27.038Z,26
2023-03-12T13:34:28.942Z,26
2023-03-12T13:35:31.042Z,26
2023-03-12T13:36:33.368Z,26
2023-03-12T13:37:35.246Z,26
2023-03-12T13:38:37.187Z,26.1
2023-03-12T13:39:39.060Z,26.1
2023-03-12T13:40:40.898Z,26.1
2023-03-12T13:41:42.830Z,26.1
2023-03-12T13:42:44.715Z,26.1
2023-03-12T13:43:46.559Z,26.1
2023-03-12T13:44:48.374Z,26.1
2023-03-12T13:45:50.306Z,26
2023-03-12T13:46:52.458Z,26
2023-03-12T13:47:54.358Z,26.1
2023-03-12T13:48:56.318Z,26.1
2023-03-12T13:49:58.160Z,26.1
2023-03-12T13:51:00.059Z,26.1
2023-03-12T13:52:02.045Z,26.1